Hancock, West Virginia
Current Conditions -  °F | °C
As of 2:53 AM on Tuesday 27 Jan 2015 (Local Time) from KMRB Reporting Station
Overcast Overcast  
Wind Chill: 22°   Ceiling: 6000
Heat Index: 28°   Visibility: 10mi
Dew Point: 20°   Wind: 6mph
Humidity: 72%   Direction: 360°N
Pressure: 29.78"   Gusts: NA
Location:  39.5563°N, 78.2182°W
Report Text: KMRB 270753Z AUTO 36005KT 10SM OVC060 M02/M07 A2978 RMK AO2 SLP089 T10221067 TSNO
Loading
Personal Weather Stations






























Interactive Weather Map New forecast layout! Learn more

10-Day Weather Forecast

Advertisements
Track Severe Weather on mobile